sensor_id;sensor_type;location;lat;lon;timestamp;temperature;humidity
76787;DHT22;65739;51.482;5.702;2023-02-19T00:02:21;10.60;99.90
76787;DHT22;65739;51.482;5.702;2023-02-19T00:04:46;10.60;99.90
76787;DHT22;65739;51.482;5.702;2023-02-19T00:07:12;10.60;99.90
76787;DHT22;65739;51.482;5.702;2023-02-19T00:09:37;10.70;99.90
76787;DHT22;65739;51.482;5.702;2023-02-19T00:12:03;10.70;99.90
76787;DHT22;65739;51.482;5.702;2023-02-19T00:14:28;10.70;99.90
76787;DHT22;65739;51.482;5.702;2023-02-19T00:16:54;10.70;99.90
76787;DHT22;65739;51.482;5.702;2023-02-19T00:19:20;10.60;99.90
76787;DHT22;65739;51.482;5.702;2023-02-19T00:21:46;10.60;99.90
76787;DHT22;65739;51.482;5.702;2023-02-19T00:24:13;10.50;99.90
76787;DHT22;65739;51.482;5.702;2023-02-19T00:26:40;10.50;99.90
76787;DHT22;65739;51.482;5.702;2023-02-19T00:29:06;10.50;99.90
76787;DHT22;65739;51.482;5.702;2023-02-19T00:31:33;10.50;99.90
76787;DHT22;65739;51.482;5.702;2023-02-19T00:34:04;10.50;99.90
76787;DHT22;65739;51.482;5.702;2023-02-19T00:36:30;10.50;99.90
76787;DHT22;65739;51.482;5.702;2023-02-19T00:38:56;10.50;99.90
76787;DHT22;65739;51.482;5.702;2023-02-19T00:41:23;10.50;99.90
76787;DHT22;65739;51.482;5.702;2023-02-19T00:43:57;10.40;99.90
76787;DHT22;65739;51.482;5.702;2023-02-19T00:48:50;10.50;99.90
76787;DHT22;65739;51.482;5.702;2023-02-19T00:51:17;10.40;99.90
76787;DHT22;65739;51.482;5.702;2023-02-19T00:53:43;10.60;99.90
76787;DHT22;65739;51.482;5.702;2023-02-19T00:56:09;10.50;99.90
76787;DHT22;65739;51.482;5.702;2023-02-19T00:58:35;10.50;99.90
76787;DHT22;65739;51.482;5.702;2023-02-19T01:01:01;10.50;99.90
76787;DHT22;65739;51.482;5.702;2023-02-19T01:03:27;10.50;99.90
76787;DHT22;65739;51.482;5.702;2023-02-19T01:05:52;10.50;99.90
76787;DHT22;65739;51.482;5.702;2023-02-19T01:08:19;10.50;99.90
76787;DHT22;65739;51.482;5.702;2023-02-19T01:10:45;10.60;99.90
76787;DHT22;65739;51.482;5.702;2023-02-19T01:13:11;10.50;99.90
76787;DHT22;65739;51.482;5.702;2023-02-19T01:15:37;10.50;99.90
76787;DHT22;65739;51.482;5.702;2023-02-19T01:18:03;10.50;99.90
76787;DHT22;65739;51.482;5.702;2023-02-19T01:20:28;10.50;99.90
76787;DHT22;65739;51.482;5.702;2023-02-19T01:22:54;10.60;99.90
76787;DHT22;65739;51.482;5.702;2023-02-19T01:25:19;10.60;99.90
76787;DHT22;65739;51.482;5.702;2023-02-19T01:27:45;10.60;99.90
76787;DHT22;65739;51.482;5.702;2023-02-19T01:30:11;10.50;99.90
76787;DHT22;65739;51.482;5.702;2023-02-19T01:32:37;10.50;99.90
76787;DHT22;65739;51.482;5.702;2023-02-19T01:35:03;10.50;99.90
76787;DHT22;65739;51.482;5.702;2023-02-19T01:37:29;10.60;99.90
76787;DHT22;65739;51.482;5.702;2023-02-19T01:39:54;10.50;99.90
76787;DHT22;65739;51.482;5.702;2023-02-19T01:42:20;10.50;99.90
76787;DHT22;65739;51.482;5.702;2023-02-19T01:47:11;10.50;99.90
76787;DHT22;65739;51.482;5.702;2023-02-19T01:49:48;10.50;99.90
76787;DHT22;65739;51.482;5.702;2023-02-19T01:52:35;10.50;99.90
76787;DHT22;65739;51.482;5.702;2023-02-19T01:55:02;10.50;99.90
76787;DHT22;65739;51.482;5.702;2023-02-19T01:57:33;10.60;99.90
76787;DHT22;65739;51.482;5.702;2023-02-19T02:00:08;10.60;99.90
76787;DHT22;65739;51.482;5.702;2023-02-19T02:02:34;10.50;99.90
76787;DHT22;65739;51.482;5.702;2023-02-19T02:05:01;10.50;99.90
76787;DHT22;65739;51.482;5.702;2023-02-19T02:07:27;10.50;99.90
76787;DHT22;65739;51.482;5.702;2023-02-19T02:10:11;10.50;99.90
76787;DHT22;65739;51.482;5.702;2023-02-19T02:12:50;10.50;99.90
76787;DHT22;65739;51.482;5.702;2023-02-19T02:15:17;10.50;99.90
76787;DHT22;65739;51.482;5.702;2023-02-19T02:17:50;10.60;99.90
76787;DHT22;65739;51.482;5.702;2023-02-19T02:20:52;10.60;99.90
76787;DHT22;65739;51.482;5.702;2023-02-19T02:23:28;10.50;99.90
76787;DHT22;65739;51.482;5.702;2023-02-19T02:26:04;10.50;99.90
76787;DHT22;65739;51.482;5.702;2023-02-19T02:31:18;10.50;99.90
76787;DHT22;65739;51.482;5.702;2023-02-19T02:34:06;10.50;99.90
76787;DHT22;65739;51.482;5.702;2023-02-19T02:36:41;10.50;99.90
76787;DHT22;65739;51.482;5.702;2023-02-19T02:39:10;10.50;99.90
76787;DHT22;65739;51.482;5.702;2023-02-19T02:41:43;10.40;99.90
76787;DHT22;65739;51.482;5.702;2023-02-19T02:44:09;10.40;99.90
76787;DHT22;65739;51.482;5.702;2023-02-19T02:46:39;10.40;99.90
76787;DHT22;65739;51.482;5.702;2023-02-19T02:49:11;10.40;99.90
76787;DHT22;65739;51.482;5.702;2023-02-19T02:51:42;10.50;99.90
76787;DHT22;65739;51.482;5.702;2023-02-19T02:54:28;10.50;99.90
76787;DHT22;65739;51.482;5.702;2023-02-19T02:57:16;10.50;99.90
76787;DHT22;65739;51.482;5.702;2023-02-19T02:59:44;10.50;99.90
76787;DHT22;65739;51.482;5.702;2023-02-19T03:02:18;10.40;99.90
76787;DHT22;65739;51.482;5.702;2023-02-19T03:05:03;10.40;99.90
76787;DHT22;65739;51.482;5.702;2023-02-19T03:07:53;10.40;99.90
76787;DHT22;65739;51.482;5.702;2023-02-19T03:11:16;10.40;99.90
76787;DHT22;65739;51.482;5.702;2023-02-19T03:13:32;10.40;99.90
76787;DHT22;65739;51.482;5.702;2023-02-19T03:16:21;10.40;99.90
76787;DHT22;65739;51.482;5.702;2023-02-19T03:19:10;10.40;99.90
76787;DHT22;65739;51.482;5.702;2023-02-19T03:22:01;10.30;99.90
76787;DHT22;65739;51.482;5.702;2023-02-19T03:24:30;10.30;99.90
76787;DHT22;65739;51.482;5.702;2023-02-19T03:27:16;10.30;99.90
76787;DHT22;65739;51.482;5.702;2023-02-19T03:29:44;10.20;99.90
76787;DHT22;65739;51.482;5.702;2023-02-19T03:35:28;10.20;99.90
76787;DHT22;65739;51.482;5.702;2023-02-19T03:38:00;10.10;99.90
76787;DHT22;65739;51.482;5.702;2023-02-19T03:40:30;10.10;99.90
76787;DHT22;65739;51.482;5.702;2023-02-19T03:46:07;9.90;99.90
76787;DHT22;65739;51.482;5.702;2023-02-19T03:48:35;9.80;99.90
76787;DHT22;65739;51.482;5.702;2023-02-19T03:51:23;9.80;99.90
76787;DHT22;65739;51.482;5.702;2023-02-19T03:56:49;9.80;99.90
76787;DHT22;65739;51.482;5.702;2023-02-19T04:01:54;9.80;99.90
76787;DHT22;65739;51.482;5.702;2023-02-19T04:04:41;9.80;99.90
76787;DHT22;65739;51.482;5.702;2023-02-19T04:07:08;9.80;99.90
76787;DHT22;65739;51.482;5.702;2023-02-19T04:09:46;9.80;99.90
76787;DHT22;65739;51.482;5.702;2023-02-19T04:12:14;9.90;99.90
76787;DHT22;65739;51.482;5.702;2023-02-19T04:14:51;9.80;99.90
76787;DHT22;65739;51.482;5.702;2023-02-19T04:17:41;9.90;99.90
76787;DHT22;65739;51.482;5.702;2023-02-19T04:20:09;9.90;99.90
76787;DHT22;65739;51.482;5.702;2023-02-19T04:22:37;9.90;99.90
76787;DHT22;65739;51.482;5.702;2023-02-19T04:25:04;9.90;99.90
76787;DHT22;65739;51.482;5.702;2023-02-19T04:27:29;9.90;99.90
76787;DHT22;65739;51.482;5.702;2023-02-19T04:29:55;9.80;99.90
76787;DHT22;65739;51.482;5.702;2023-02-19T04:32:21;9.90;99.90
76787;DHT22;65739;51.482;5.702;2023-02-19T04:34:46;9.90;99.90
76787;DHT22;65739;51.482;5.702;2023-02-19T04:37:12;9.90;99.90
76787;DHT22;65739;51.482;5.702;2023-02-19T04:39:38;9.90;99.90
76787;DHT22;65739;51.482;5.702;2023-02-19T04:42:03;9.80;99.90
76787;DHT22;65739;51.482;5.702;2023-02-19T04:44:29;9.80;99.90
76787;DHT22;65739;51.482;5.702;2023-02-19T04:46:54;9.80;99.90
76787;DHT22;65739;51.482;5.702;2023-02-19T04:49:20;9.80;99.90
76787;DHT22;65739;51.482;5.702;2023-02-19T04:51:46;9.80;99.90
76787;DHT22;65739;51.482;5.702;2023-02-19T04:54:11;9.80;99.90
76787;DHT22;65739;51.482;5.702;2023-02-19T04:56:37;9.70;99.90
76787;DHT22;65739;51.482;5.702;2023-02-19T04:59:03;9.80;99.90
76787;DHT22;65739;51.482;5.702;2023-02-19T05:01:29;9.80;99.90
76787;DHT22;65739;51.482;5.702;2023-02-19T05:03:55;9.80;99.90
76787;DHT22;65739;51.482;5.702;2023-02-19T05:06:20;9.80;99.90
76787;DHT22;65739;51.482;5.702;2023-02-19T05:08:46;9.90;99.90
76787;DHT22;65739;51.482;5.702;2023-02-19T05:11:11;9.80;99.90
76787;DHT22;65739;51.482;5.702;2023-02-19T05:13:38;9.80;99.90
76787;DHT22;65739;51.482;5.702;2023-02-19T05:16:10;9.70;99.90
76787;DHT22;65739;51.482;5.702;2023-02-19T05:18:38;9.70;99.90
76787;DHT22;65739;51.482;5.702;2023-02-19T05:21:04;9.70;99.90
76787;DHT22;65739;51.482;5.702;2023-02-19T05:23:30;9.60;99.90
76787;DHT22;65739;51.482;5.702;2023-02-19T05:25:55;9.60;99.90
76787;DHT22;65739;51.482;5.702;2023-02-19T05:28:21;9.60;99.90
76787;DHT22;65739;51.482;5.702;2023-02-19T05:30:53;9.60;99.90
76787;DHT22;65739;51.482;5.702;2023-02-19T05:33:21;9.60;99.90
76787;DHT22;65739;51.482;5.702;2023-02-19T05:35:50;9.60;99.90
76787;DHT22;65739;51.482;5.702;2023-02-19T05:38:16;9.60;99.90
76787;DHT22;65739;51.482;5.702;2023-02-19T05:40:42;9.60;99.90
76787;DHT22;65739;51.482;5.702;2023-02-19T05:43:08;9.60;99.90
76787;DHT22;65739;51.482;5.702;2023-02-19T05:45:34;9.60;99.90
76787;DHT22;65739;51.482;5.702;2023-02-19T05:48:00;9.50;99.90
76787;DHT22;65739;51.482;5.702;2023-02-19T05:50:26;9.60;99.90
76787;DHT22;65739;51.482;5.702;2023-02-19T05:52:52;9.60;99.90
76787;DHT22;65739;51.482;5.702;2023-02-19T05:55:17;9.60;99.90
76787;DHT22;65739;51.482;5.702;2023-02-19T05:57:45;9.60;99.90
76787;DHT22;65739;51.482;5.702;2023-02-19T06:00:13;9.60;99.90
76787;DHT22;65739;51.482;5.702;2023-02-19T06:02:39;9.60;99.90
76787;DHT22;65739;51.482;5.702;2023-02-19T06:05:05;9.60;99.90
76787;DHT22;65739;51.482;5.702;2023-02-19T06:07:31;9.60;99.90
76787;DHT22;65739;51.482;5.702;2023-02-19T06:09:57;9.50;99.90
76787;DHT22;65739;51.482;5.702;2023-02-19T06:12:23;9.50;99.90
76787;DHT22;65739;51.482;5.702;2023-02-19T06:14:48;9.40;99.90
76787;DHT22;65739;51.482;5.702;2023-02-19T06:17:14;9.40;99.90
76787;DHT22;65739;51.482;5.702;2023-02-19T06:19:40;9.30;99.90
76787;DHT22;65739;51.482;5.702;2023-02-19T06:22:06;9.30;99.90
76787;DHT22;65739;51.482;5.702;2023-02-19T06:24:31;9.30;99.90
76787;DHT22;65739;51.482;5.702;2023-02-19T06:26:57;9.30;99.90
76787;DHT22;65739;51.482;5.702;2023-02-19T06:29:23;9.20;99.90
76787;DHT22;65739;51.482;5.702;2023-02-19T06:31:49;9.20;99.90
76787;DHT22;65739;51.482;5.702;2023-02-19T06:34:14;9.20;99.90
76787;DHT22;65739;51.482;5.702;2023-02-19T06:36:40;9.10;99.90
76787;DHT22;65739;51.482;5.702;2023-02-19T06:39:05;9.10;99.90
76787;DHT22;65739;51.482;5.702;2023-02-19T06:41:31;9.10;99.90
76787;DHT22;65739;51.482;5.702;2023-02-19T06:43:57;9.10;99.90
76787;DHT22;65739;51.482;5.702;2023-02-19T06:46:23;9.10;99.90
76787;DHT22;65739;51.482;5.702;2023-02-19T06:48:49;9.10;99.90
76787;DHT22;65739;51.482;5.702;2023-02-19T06:51:17;9.10;99.90
76787;DHT22;65739;51.482;5.702;2023-02-19T06:53:44;9.10;99.90
76787;DHT22;65739;51.482;5.702;2023-02-19T06:56:25;9.20;99.90
76787;DHT22;65739;51.482;5.702;2023-02-19T06:58:52;9.10;99.90
76787;DHT22;65739;51.482;5.702;2023-02-19T07:01:18;9.20;99.90
76787;DHT22;65739;51.482;5.702;2023-02-19T07:03:44;9.20;99.90
76787;DHT22;65739;51.482;5.702;2023-02-19T07:06:09;9.20;99.90
76787;DHT22;65739;51.482;5.702;2023-02-19T07:08:35;9.20;99.90
76787;DHT22;65739;51.482;5.702;2023-02-19T07:11:01;9.20;99.90
76787;DHT22;65739;51.482;5.702;2023-02-19T07:13:26;9.20;99.90
76787;DHT22;65739;51.482;5.702;2023-02-19T07:16:00;9.20;99.90
76787;DHT22;65739;51.482;5.702;2023-02-19T07:18:26;9.20;99.90
76787;DHT22;65739;51.482;5.702;2023-02-19T07:20:52;9.20;99.90
76787;DHT22;65739;51.482;5.702;2023-02-19T07:23:18;9.30;99.90
76787;DHT22;65739;51.482;5.702;2023-02-19T07:25:43;9.30;99.90
76787;DHT22;65739;51.482;5.702;2023-02-19T07:28:09;9.30;99.90
76787;DHT22;65739;51.482;5.702;2023-02-19T07:30:35;9.30;99.90
76787;DHT22;65739;51.482;5.702;2023-02-19T07:33:00;9.30;99.90
76787;DHT22;65739;51.482;5.702;2023-02-19T07:35:26;9.20;99.90
76787;DHT22;65739;51.482;5.702;2023-02-19T07:37:52;9.20;99.90
76787;DHT22;65739;51.482;5.702;2023-02-19T07:40:17;9.20;99.90
76787;DHT22;65739;51.482;5.702;2023-02-19T07:42:43;9.20;99.90
76787;DHT22;65739;51.482;5.702;2023-02-19T07:45:08;9.30;99.90
76787;DHT22;65739;51.482;5.702;2023-02-19T07:47:34;9.30;99.90
76787;DHT22;65739;51.482;5.702;2023-02-19T07:50:00;9.30;99.90
76787;DHT22;65739;51.482;5.702;2023-02-19T07:52:25;9.30;99.90
76787;DHT22;65739;51.482;5.702;2023-02-19T07:54:51;9.20;99.90
76787;DHT22;65739;51.482;5.702;2023-02-19T07:57:17;9.10;99.90
76787;DHT22;65739;51.482;5.702;2023-02-19T07:59:42;9.10;99.90
76787;DHT22;65739;51.482;5.702;2023-02-19T08:05:32;9.10;99.90
76787;DHT22;65739;51.482;5.702;2023-02-19T08:07:58;9.00;99.90
76787;DHT22;65739;51.482;5.702;2023-02-19T08:10:25;9.10;99.90
76787;DHT22;65739;51.482;5.702;2023-02-19T08:13:14;9.10;99.90
76787;DHT22;65739;51.482;5.702;2023-02-19T08:15:54;9.20;99.90
76787;DHT22;65739;51.482;5.702;2023-02-19T08:18:22;9.10;99.90
76787;DHT22;65739;51.482;5.702;2023-02-19T08:20:49;9.10;99.90
76787;DHT22;65739;51.482;5.702;2023-02-19T08:23:16;9.10;99.90
76787;DHT22;65739;51.482;5.702;2023-02-19T08:25:42;9.10;99.90
76787;DHT22;65739;51.482;5.702;2023-02-19T08:28:09;9.10;99.90
76787;DHT22;65739;51.482;5.702;2023-02-19T08:30:35;9.20;99.90
76787;DHT22;65739;51.482;5.702;2023-02-19T08:33:03;9.10;99.90
76787;DHT22;65739;51.482;5.702;2023-02-19T08:35:29;9.20;99.90
76787;DHT22;65739;51.482;5.702;2023-02-19T08:37:56;9.20;99.90
76787;DHT22;65739;51.482;5.702;2023-02-19T08:40:22;9.20;99.90
76787;DHT22;65739;51.482;5.702;2023-02-19T08:42:48;9.20;99.90
76787;DHT22;65739;51.482;5.702;2023-02-19T08:45:13;9.20;99.90
76787;DHT22;65739;51.482;5.702;2023-02-19T08:47:39;9.20;99.90
76787;DHT22;65739;51.482;5.702;2023-02-19T08:50:06;9.40;99.90
76787;DHT22;65739;51.482;5.702;2023-02-19T08:52:32;9.40;99.90
76787;DHT22;65739;51.482;5.702;2023-02-19T08:54:58;9.40;99.90
76787;DHT22;65739;51.482;5.702;2023-02-19T08:57:23;9.50;99.90
76787;DHT22;65739;51.482;5.702;2023-02-19T08:59:49;9.60;99.90
76787;DHT22;65739;51.482;5.702;2023-02-19T09:02:15;9.60;99.90
76787;DHT22;65739;51.482;5.702;2023-02-19T09:04:41;9.50;99.90
76787;DHT22;65739;51.482;5.702;2023-02-19T09:07:06;9.50;99.90
76787;DHT22;65739;51.482;5.702;2023-02-19T09:09:36;9.50;99.90
76787;DHT22;65739;51.482;5.702;2023-02-19T09:12:07;9.60;99.90
76787;DHT22;65739;51.482;5.702;2023-02-19T09:14:33;9.60;99.90
76787;DHT22;65739;51.482;5.702;2023-02-19T09:17:00;9.60;99.90
76787;DHT22;65739;51.482;5.702;2023-02-19T09:19:27;9.60;99.90
76787;DHT22;65739;51.482;5.702;2023-02-19T09:21:53;9.60;99.90
76787;DHT22;65739;51.482;5.702;2023-02-19T09:24:19;9.70;99.90
76787;DHT22;65739;51.482;5.702;2023-02-19T09:26:44;9.70;99.90
76787;DHT22;65739;51.482;5.702;2023-02-19T09:29:12;9.80;99.90
76787;DHT22;65739;51.482;5.702;2023-02-19T09:31:39;9.80;99.90
76787;DHT22;65739;51.482;5.702;2023-02-19T09:34:04;9.80;99.90
76787;DHT22;65739;51.482;5.702;2023-02-19T09:36:30;9.90;99.90
76787;DHT22;65739;51.482;5.702;2023-02-19T09:38:58;10.10;99.90
76787;DHT22;65739;51.482;5.702;2023-02-19T09:41:57;10.30;99.90
76787;DHT22;65739;51.482;5.702;2023-02-19T09:44:33;10.30;99.90
76787;DHT22;65739;51.482;5.702;2023-02-19T09:47:01;10.40;99.90
76787;DHT22;65739;51.482;5.702;2023-02-19T09:49:34;10.50;99.90
76787;DHT22;65739;51.482;5.702;2023-02-19T09:52:21;10.50;99.90
76787;DHT22;65739;51.482;5.702;2023-02-19T09:54:48;10.50;99.90
76787;DHT22;65739;51.482;5.702;2023-02-19T09:57:16;10.50;99.90
76787;DHT22;65739;51.482;5.702;2023-02-19T09:59:49;10.50;99.90
76787;DHT22;65739;51.482;5.702;2023-02-19T10:02:18;10.50;99.90
76787;DHT22;65739;51.482;5.702;2023-02-19T10:04:45;10.40;99.90
76787;DHT22;65739;51.482;5.702;2023-02-19T10:07:20;10.30;99.90
76787;DHT22;65739;51.482;5.702;2023-02-19T10:09:57;10.30;99.90
76787;DHT22;65739;51.482;5.702;2023-02-19T10:12:28;10.30;99.90
76787;DHT22;65739;51.482;5.702;2023-02-19T10:15:04;10.30;99.90
76787;DHT22;65739;51.482;5.702;2023-02-19T10:17:33;10.40;99.90
76787;DHT22;65739;51.482;5.702;2023-02-19T10:20:00;10.50;99.90
76787;DHT22;65739;51.482;5.702;2023-02-19T10:22:30;10.60;99.90
76787;DHT22;65739;51.482;5.702;2023-02-19T10:24:56;10.70;99.90
76787;DHT22;65739;51.482;5.702;2023-02-19T10:27:25;10.70;99.90
76787;DHT22;65739;51.482;5.702;2023-02-19T10:29:53;10.70;99.90
76787;DHT22;65739;51.482;5.702;2023-02-19T10:32:21;10.70;99.90
76787;DHT22;65739;51.482;5.702;2023-02-19T10:35:12;10.70;99.90
76787;DHT22;65739;51.482;5.702;2023-02-19T10:37:43;10.70;99.90
76787;DHT22;65739;51.482;5.702;2023-02-19T10:40:17;10.80;99.90
76787;DHT22;65739;51.482;5.702;2023-02-19T10:42:48;10.80;99.90
76787;DHT22;65739;51.482;5.702;2023-02-19T10:45:22;10.90;99.90
76787;DHT22;65739;51.482;5.702;2023-02-19T10:47:50;10.90;99.90
76787;DHT22;65739;51.482;5.702;2023-02-19T10:50:30;10.90;99.90
76787;DHT22;65739;51.482;5.702;2023-02-19T10:52:57;10.90;99.90
76787;DHT22;65739;51.482;5.702;2023-02-19T10:55:29;10.90;99.90
76787;DHT22;65739;51.482;5.702;2023-02-19T10:57:55;10.80;99.90
76787;DHT22;65739;51.482;5.702;2023-02-19T11:00:27;10.70;99.90
76787;DHT22;65739;51.482;5.702;2023-02-19T11:03:20;10.90;99.90
76787;DHT22;65739;51.482;5.702;2023-02-19T11:06:06;10.90;99.90
76787;DHT22;65739;51.482;5.702;2023-02-19T11:08:55;10.90;99.90
76787;DHT22;65739;51.482;5.702;2023-02-19T11:13:56;10.80;99.90
76787;DHT22;65739;51.482;5.702;2023-02-19T11:16:37;10.70;99.90
76787;DHT22;65739;51.482;5.702;2023-02-19T11:19:03;10.70;99.90
76787;DHT22;65739;51.482;5.702;2023-02-19T11:21:29;10.70;99.90
76787;DHT22;65739;51.482;5.702;2023-02-19T11:23:59;10.80;99.90
76787;DHT22;65739;51.482;5.702;2023-02-19T11:26:31;10.70;99.90
76787;DHT22;65739;51.482;5.702;2023-02-19T11:29:09;10.70;99.90
76787;DHT22;65739;51.482;5.702;2023-02-19T11:31:36;10.60;99.90
76787;DHT22;65739;51.482;5.702;2023-02-19T11:34:21;10.60;99.90
76787;DHT22;65739;51.482;5.702;2023-02-19T11:37:08;10.70;99.90
76787;DHT22;65739;51.482;5.702;2023-02-19T11:39:34;10.60;99.90
76787;DHT22;65739;51.482;5.702;2023-02-19T11:42:28;10.70;99.90
76787;DHT22;65739;51.482;5.702;2023-02-19T11:50:51;11.30;99.90
76787;DHT22;65739;51.482;5.702;2023-02-19T11:53:30;11.50;99.90
76787;DHT22;65739;51.482;5.702;2023-02-19T11:56:15;11.50;99.90
76787;DHT22;65739;51.482;5.702;2023-02-19T11:59:03;11.50;99.90
76787;DHT22;65739;51.482;5.702;2023-02-19T12:07:42;11.80;99.90
76787;DHT22;65739;51.482;5.702;2023-02-19T12:10:30;11.80;99.90
76787;DHT22;65739;51.482;5.702;2023-02-19T12:19:08;11.70;99.90
76787;DHT22;65739;51.482;5.702;2023-02-19T12:21:53;11.50;99.90
76787;DHT22;65739;51.482;5.702;2023-02-19T12:36:04;10.90;99.90
76787;DHT22;65739;51.482;5.702;2023-02-19T12:38:57;10.90;99.90
76787;DHT22;65739;51.482;5.702;2023-02-19T12:41:53;10.90;99.90
76787;DHT22;65739;51.482;5.702;2023-02-19T12:44:25;11.10;99.90
76787;DHT22;65739;51.482;5.702;2023-02-19T12:46:59;11.30;99.90
76787;DHT22;65739;51.482;5.702;2023-02-19T12:52:07;11.80;99.90
76787;DHT22;65739;51.482;5.702;2023-02-19T12:54:37;11.80;99.90
76787;DHT22;65739;51.482;5.702;2023-02-19T12:57:30;11.80;99.90
76787;DHT22;65739;51.482;5.702;2023-02-19T13:02:49;12.00;99.90
76787;DHT22;65739;51.482;5.702;2023-02-19T13:08:10;11.90;99.90
76787;DHT22;65739;51.482;5.702;2023-02-19T13:10:45;11.70;99.90
76787;DHT22;65739;51.482;5.702;2023-02-19T13:13:27;11.80;99.90
76787;DHT22;65739;51.482;5.702;2023-02-19T13:16:05;11.80;99.90
76787;DHT22;65739;51.482;5.702;2023-02-19T13:18:40;11.90;99.90
76787;DHT22;65739;51.482;5.702;2023-02-19T13:21:06;11.70;99.90
76787;DHT22;65739;51.482;5.702;2023-02-19T13:23:35;11.70;99.90
76787;DHT22;65739;51.482;5.702;2023-02-19T13:37:34;11.10;99.90
76787;DHT22;65739;51.482;5.702;2023-02-19T13:42:53;11.00;99.90
76787;DHT22;65739;51.482;5.702;2023-02-19T13:45:43;11.20;99.90
76787;DHT22;65739;51.482;5.702;2023-02-19T13:50:48;11.50;99.90
76787;DHT22;65739;51.482;5.702;2023-02-19T13:59:22;11.00;99.90
76787;DHT22;65739;51.482;5.702;2023-02-19T14:04:23;11.00;99.90
76787;DHT22;65739;51.482;5.702;2023-02-19T14:09:42;11.00;99.90
76787;DHT22;65739;51.482;5.702;2023-02-19T14:19:46;10.50;99.90
76787;DHT22;65739;51.482;5.702;2023-02-19T14:30:52;10.30;99.90
76787;DHT22;65739;51.482;5.702;2023-02-19T14:33:42;10.30;99.90
76787;DHT22;65739;51.482;5.702;2023-02-19T14:36:43;10.30;99.90
76787;DHT22;65739;51.482;5.702;2023-02-19T14:39:18;10.30;99.90
76787;DHT22;65739;51.482;5.702;2023-02-19T14:41:48;10.00;99.90
76787;DHT22;65739;51.482;5.702;2023-02-19T14:44:28;9.80;99.90
76787;DHT22;65739;51.482;5.702;2023-02-19T14:47:12;9.80;99.90
76787;DHT22;65739;51.482;5.702;2023-02-19T14:54:53;9.50;99.90
76787;DHT22;65739;51.482;5.702;2023-02-19T14:57:24;9.40;99.90
76787;DHT22;65739;51.482;5.702;2023-02-19T14:59:54;9.40;99.90
76787;DHT22;65739;51.482;5.702;2023-02-19T15:02:22;9.40;99.90
76787;DHT22;65739;51.482;5.702;2023-02-19T15:04:50;9.40;99.90
76787;DHT22;65739;51.482;5.702;2023-02-19T15:07:20;9.50;99.90
76787;DHT22;65739;51.482;5.702;2023-02-19T15:09:50;9.60;99.90
76787;DHT22;65739;51.482;5.702;2023-02-19T15:12:21;9.50;99.90
76787;DHT22;65739;51.482;5.702;2023-02-19T15:14:49;9.50;99.90
76787;DHT22;65739;51.482;5.702;2023-02-19T15:17:32;9.40;99.90
76787;DHT22;65739;51.482;5.702;2023-02-19T15:20:03;9.30;99.90
76787;DHT22;65739;51.482;5.702;2023-02-19T15:22:32;9.40;99.90
76787;DHT22;65739;51.482;5.702;2023-02-19T15:25:03;9.40;99.90
76787;DHT22;65739;51.482;5.702;2023-02-19T15:27:29;9.30;99.90
76787;DHT22;65739;51.482;5.702;2023-02-19T15:29:57;9.20;99.90
76787;DHT22;65739;51.482;5.702;2023-02-19T15:32:25;9.20;99.90
76787;DHT22;65739;51.482;5.702;2023-02-19T15:35:03;9.10;99.90
76787;DHT22;65739;51.482;5.702;2023-02-19T15:37:32;9.10;99.90
76787;DHT22;65739;51.482;5.702;2023-02-19T15:40:03;9.00;99.90
76787;DHT22;65739;51.482;5.702;2023-02-19T15:42:33;9.00;99.90
76787;DHT22;65739;51.482;5.702;2023-02-19T15:45:16;8.90;99.90
76787;DHT22;65739;51.482;5.702;2023-02-19T15:47:53;8.90;99.90
76787;DHT22;65739;51.482;5.702;2023-02-19T15:50:47;9.00;99.90
76787;DHT22;65739;51.482;5.702;2023-02-19T15:55:46;9.00;99.90
76787;DHT22;65739;51.482;5.702;2023-02-19T15:58:22;9.00;99.90
76787;DHT22;65739;51.482;5.702;2023-02-19T16:00:53;9.00;99.90
76787;DHT22;65739;51.482;5.702;2023-02-19T16:03:21;9.00;99.90
76787;DHT22;65739;51.482;5.702;2023-02-19T16:08:32;9.00;99.90
76787;DHT22;65739;51.482;5.702;2023-02-19T16:11:00;9.10;99.90
76787;DHT22;65739;51.482;5.702;2023-02-19T16:13:29;9.10;99.90
76787;DHT22;65739;51.482;5.702;2023-02-19T16:16:40;9.00;99.90
76787;DHT22;65739;51.482;5.702;2023-02-19T16:18:48;9.00;99.90
76787;DHT22;65739;51.482;5.702;2023-02-19T16:21:16;9.00;99.90
76787;DHT22;65739;51.482;5.702;2023-02-19T16:23:46;8.90;99.90
76787;DHT22;65739;51.482;5.702;2023-02-19T16:26:13;8.90;99.90
76787;DHT22;65739;51.482;5.702;2023-02-19T16:28:40;8.90;99.90
76787;DHT22;65739;51.482;5.702;2023-02-19T16:31:08;8.80;99.90
76787;DHT22;65739;51.482;5.702;2023-02-19T16:33:45;8.80;99.90
76787;DHT22;65739;51.482;5.702;2023-02-19T16:36:19;8.80;99.90
76787;DHT22;65739;51.482;5.702;2023-02-19T16:41:28;8.70;99.90
76787;DHT22;65739;51.482;5.702;2023-02-19T16:43:53;8.70;99.90
76787;DHT22;65739;51.482;5.702;2023-02-19T16:46:19;8.60;99.90
76787;DHT22;65739;51.482;5.702;2023-02-19T16:48:45;8.50;99.90
76787;DHT22;65739;51.482;5.702;2023-02-19T16:51:18;8.60;99.90
76787;DHT22;65739;51.482;5.702;2023-02-19T16:53:46;8.50;99.90
76787;DHT22;65739;51.482;5.702;2023-02-19T16:56:17;8.50;99.90
76787;DHT22;65739;51.482;5.702;2023-02-19T16:58:45;8.50;99.90
76787;DHT22;65739;51.482;5.702;2023-02-19T17:01:11;8.50;99.90
76787;DHT22;65739;51.482;5.702;2023-02-19T17:03:37;8.50;99.90
76787;DHT22;65739;51.482;5.702;2023-02-19T17:06:12;8.40;99.90
76787;DHT22;65739;51.482;5.702;2023-02-19T17:08:40;8.40;99.90
76787;DHT22;65739;51.482;5.702;2023-02-19T17:11:11;8.30;99.90
76787;DHT22;65739;51.482;5.702;2023-02-19T17:13:39;8.30;99.90
76787;DHT22;65739;51.482;5.702;2023-02-19T17:16:05;8.20;99.90
76787;DHT22;65739;51.482;5.702;2023-02-19T17:18:30;8.20;99.90
76787;DHT22;65739;51.482;5.702;2023-02-19T17:21:15;8.10;99.90
76787;DHT22;65739;51.482;5.702;2023-02-19T17:23:42;8.10;99.90
76787;DHT22;65739;51.482;5.702;2023-02-19T17:26:14;8.00;99.90
76787;DHT22;65739;51.482;5.702;2023-02-19T17:28:40;8.00;99.90
76787;DHT22;65739;51.482;5.702;2023-02-19T17:31:05;8.00;99.90
76787;DHT22;65739;51.482;5.702;2023-02-19T17:33:34;8.00;99.90
76787;DHT22;65739;51.482;5.702;2023-02-19T17:36:00;8.00;99.90
76787;DHT22;65739;51.482;5.702;2023-02-19T17:38:25;8.00;99.90
76787;DHT22;65739;51.482;5.702;2023-02-19T17:40:52;8.00;99.90
76787;DHT22;65739;51.482;5.702;2023-02-19T17:43:18;8.10;99.90
76787;DHT22;65739;51.482;5.702;2023-02-19T17:45:43;8.00;99.90
76787;DHT22;65739;51.482;5.702;2023-02-19T17:48:13;8.00;99.90
76787;DHT22;65739;51.482;5.702;2023-02-19T17:50:39;8.00;99.90
76787;DHT22;65739;51.482;5.702;2023-02-19T17:53:05;8.00;99.90
76787;DHT22;65739;51.482;5.702;2023-02-19T17:55:31;8.00;99.90
76787;DHT22;65739;51.482;5.702;2023-02-19T17:57:58;8.00;99.90
76787;DHT22;65739;51.482;5.702;2023-02-19T18:00:30;8.00;99.90
76787;DHT22;65739;51.482;5.702;2023-02-19T18:02:57;8.00;99.90